St Lucie County International Airport
KFPR : now visible

Airfield :











YOU CAN JOIN US ON...

 
LOGIN :

Register | Disclaimer

   EN    FR    IT 

 









Legend :    VFR   Marginal VFR   IFR   Intensive IFR   Very Intensive IFR
Visi :
Ceiling :
>= 8 km
>= 3000ft
5 to 8 km
1000 to 3000 ft
1500m to 5 km
500 to 1000 ft
800 to 1500m
200 to 500 ft
< 800m
< 200 ft
Symbols :   Thunderstorms  Fog  Heavy snow  Heavy precipitations  Wind > 20 kt






- Airport Elevation : 24 ft
- IATA code : FPR


KFPR - St Lucie County International

CURRENT METAR :
  • 180553Z AUTO 09007KT 10SM CLR 26/21 A3000 RMK AO2 SLP159 60009 T02610206 10278 20256 58008

EXPIRED METARs :
  • 180453Z AUTO 09009KT 10SM CLR 26/21 A3001 RMK AO2 SLP161 T02610211 403170256
  • 180353Z AUTO 09010KT 10SM BKN038 BKN049 OVC080 27/21 A3002 RMK AO2 SLP165 T02670211
  • 180253Z AUTO 09008KT 10SM FEW032 SCT085 26/22 A3003 RMK AO2 RAB0155E19 SLP167 P0009 60009 T02610217 51011
  • 180226Z AUTO 09008KT 10SM BKN030 OVC070 26/22 A3002 RMK AO2 RAB0155E19 P0009 T02610222
  • 180205Z AUTO 09007KT 4SM -RA BKN026 BKN032 OVC060 26/22 A3002 RMK AO2 RAB0155 P0009 T02610222
  • 180153Z AUTO 09006KT 10SM SCT026 BKN035 BKN060 27/22 A3002 RMK AO2 SLP164 T02720222

TAF KFPR
Valid from the 18 at 06:00 until the 19 at 06:00 UTC


180522Z 1806/1906 09007KT P6SM VCSH SCT030 BKN300
FM181400 08015G23KT P6SM VCSH SCT025 SCT035 SCT300
FM181800 07017G25KT P6SM VCSH BKN035
FM190200 09014G22KT P6SM VCSH SCT025 BKN040
KZMA FIR / North America



MET'MAP, your aeronautical weather chart ! - Copyright ORBIFLY December 2007 - Disclaimer

ORBIFLY MET'MAP TEAM :

Programming & Development : Alexandra Zaïnal
Original concept : Baudouin d'Aumeries
Technical & hardware support : Manuel Goepfert
Assistance : Marc-Olivier Méhu




SOURCES & CREDITS :

   NOAA       Earth
Advisory